Time;durP1;ratioP1;P1;durP2;ratioP2;P2;SDS_P1;SDS_P2;PMS_P1;PMS_P2;Temp;Humidity;BMP_temperature;BMP_pressure;BME280_temperature;BME280_humidity;BME280_pressure;Samples;Min_cycle;Max_cycle;Signal;HPM_P1;HPM_P2
2023/02/23 00:01:38;;;;;;;3.65;2.17;;;22.30;51.60;;;;;;5019409;28;20495;-64
2023/02/23 00:04:04;;;;;;;3.97;2.17;;;22.30;51.60;;;;;;5021512;28;20037;-65
2023/02/23 00:06:32;;;;;;;3.10;1.88;;;22.30;51.60;;;;;;5021352;28;20116;-64
2023/02/23 00:08:59;;;;;;;3.95;2.20;;;22.30;51.60;;;;;;5016818;28;20030;-64
2023/02/23 00:11:26;;;;;;;3.88;2.05;;;22.20;51.50;;;;;;5019974;28;20075;-65
2023/02/23 00:13:52;;;;;;;4.15;1.90;;;22.20;51.60;;;;;;5019387;28;20041;-64
2023/02/23 00:16:24;;;;;;;3.95;2.10;;;22.20;51.60;;;;;;5017322;28;20049;-65
2023/02/23 00:18:59;;;;;;;3.35;1.85;;;22.20;51.60;;;;;;5018606;28;20645;-65
2023/02/23 00:21:29;;;;;;;3.83;2.22;;;22.20;51.60;;;;;;5018906;28;20029;-64
2023/02/23 00:24:00;;;;;;;3.00;2.03;;;22.20;51.60;;;;;;5020552;28;20164;-64
2023/02/23 00:26:30;;;;;;;3.95;1.90;;;22.20;51.60;;;;;;5020063;28;20030;-65
2023/02/23 00:28:56;;;;;;;2.60;1.60;;;22.20;51.60;;;;;;5017879;28;20025;-65
2023/02/23 00:31:26;;;;;;;3.70;1.70;;;22.20;51.60;;;;;;5018272;28;20026;-65
2023/02/23 00:33:53;;;;;;;;;;;22.20;51.60;;;;;;5020260;28;20025;-64
2023/02/23 00:36:20;;;;;;;4.25;1.95;;;22.10;51.50;;;;;;5018992;28;20415;-64
2023/02/23 00:38:46;;;;;;;2.67;1.70;;;22.20;51.60;;;;;;5018486;28;20029;-64
2023/02/23 00:41:20;;;;;;;3.22;1.90;;;22.20;51.60;;;;;;5019395;28;20087;-64
2023/02/23 00:43:48;;;;;;;3.08;1.95;;;22.10;51.60;;;;;;5033588;28;20114;-65
2023/02/23 00:46:16;;;;;;;3.15;1.80;;;22.10;51.60;;;;;;5020217;28;20037;-65
2023/02/23 00:48:43;;;;;;;3.55;1.88;;;22.10;51.60;;;;;;5021718;28;20044;-64
2023/02/23 00:51:09;;;;;;;3.28;1.75;;;22.10;52.10;;;;;;5020214;28;20033;-65
2023/02/23 00:53:35;;;;;;;3.33;1.85;;;22.10;51.60;;;;;;5018910;28;20421;-65
2023/02/23 00:56:03;;;;;;;2.80;1.58;;;22.10;51.60;;;;;;5020152;28;20037;-65
2023/02/23 00:58:30;;;;;;;2.80;1.65;;;22.10;51.70;;;;;;5026755;28;20061;-65
2023/02/23 01:00:58;;;;;;;2.92;1.80;;;22.10;51.60;;;;;;5026358;28;20481;-65
2023/02/23 01:03:24;;;;;;;2.80;1.60;;;22.10;51.60;;;;;;5025502;28;20021;-65
2023/02/23 01:05:50;;;;;;;3.33;1.90;;;22.00;51.60;;;;;;5024956;28;20037;-65
2023/02/23 01:08:17;;;;;;;2.70;1.50;;;22.10;51.60;;;;;;5026387;28;20030;-64
2023/02/23 01:10:51;;;;;;;3.05;1.83;;;22.00;51.60;;;;;;5026549;28;20037;-64
2023/02/23 01:13:17;;;;;;;3.53;1.80;;;22.00;51.60;;;;;;5027806;28;20528;-66
2023/02/23 01:15:43;;;;;;;2.70;1.60;;;22.00;51.60;;;;;;5025517;28;20116;-64
2023/02/23 01:18:10;;;;;;;3.33;1.70;;;22.00;51.60;;;;;;5026802;28;20098;-64
2023/02/23 01:20:36;;;;;;;2.42;1.50;;;22.00;51.60;;;;;;5021884;28;20022;-64
2023/02/23 01:23:03;;;;;;;2.92;1.58;;;22.00;52.10;;;;;;5033311;28;20098;-66
2023/02/23 01:25:29;;;;;;;4.47;1.80;;;22.00;52.10;;;;;;5025187;28;20025;-65
2023/02/23 01:27:54;;;;;;;3.20;1.60;;;22.00;51.60;;;;;;5027438;28;20029;-65
2023/02/23 01:30:20;;;;;;;3.15;1.60;;;22.00;51.60;;;;;;5027889;28;20037;-64
2023/02/23 01:32:47;;;;;;;2.42;1.52;;;22.00;51.60;;;;;;5027985;28;20030;-65
2023/02/23 01:35:13;;;;;;;2.55;1.55;;;22.00;51.60;;;;;;5026339;28;20076;-64
2023/02/23 01:37:41;;;;;;;2.35;1.38;;;21.90;51.60;;;;;;5027436;28;20469;-64
2023/02/23 01:40:15;;;;;;;2.90;1.70;;;21.90;51.60;;;;;;5026371;28;20049;-66
2023/02/23 01:42:45;;;;;;;3.38;1.90;;;21.90;51.60;;;;;;5026080;28;20087;-65
2023/02/23 01:45:18;;;;;;;2.80;1.60;;;21.90;51.60;;;;;;5021183;28;20060;-65
2023/02/23 01:47:44;;;;;;;2.55;1.73;;;21.90;51.60;;;;;;5023385;28;20034;-65
2023/02/23 01:50:10;;;;;;;2.78;1.60;;;21.90;51.60;;;;;;5027012;28;20034;-65
2023/02/23 01:52:38;;;;;;;3.08;1.70;;;21.90;51.70;;;;;;5025346;28;20017;-65
2023/02/23 01:55:05;;;;;;;3.38;1.60;;;21.90;52.20;;;;;;5022968;28;20506;-64
2023/02/23 01:57:31;;;;;;;2.97;1.50;;;21.90;51.70;;;;;;5024992;28;20037;-64
2023/02/23 01:59:57;;;;;;;2.40;1.60;;;21.90;51.70;;;;;;5023994;28;20459;-65
2023/02/23 02:02:32;;;;;;;2.50;1.40;;;21.90;51.60;;;;;;5026665;28;20044;-65
2023/02/23 02:04:59;;;;;;;2.63;1.50;;;21.90;51.70;;;;;;5024867;28;20025;-65
2023/02/23 02:07:29;;;;;;;2.30;1.45;;;21.80;51.70;;;;;;5026698;28;20116;-65
2023/02/23 02:12:50;;;;;;;2.20;1.52;;;21.80;52.10;;;;;;5024223;28;20050;-65
2023/02/23 02:15:16;;;;;;;1.95;1.30;;;21.80;51.60;;;;;;5021844;28;20128;-64
2023/02/23 02:18:08;;;;;;;2.97;1.52;;;21.80;51.60;;;;;;5020103;28;20025;-64
2023/02/23 02:20:55;;;;;;;2.50;1.50;;;21.80;51.70;;;;;;5021047;28;20017;-64
2023/02/23 02:23:46;;;;;;;2.38;1.40;;;21.80;51.70;;;;;;5021070;28;20053;-64
2023/02/23 02:26:25;;;;;;;2.58;1.40;;;21.80;51.70;;;;;;5020886;28;20029;-64
2023/02/23 02:28:50;;;;;;;2.13;1.30;;;21.80;51.70;;;;;;5019920;28;20038;-64
2023/02/23 02:31:45;;;;;;;2.17;1.45;;;21.70;51.70;;;;;;5021454;28;20404;-65
2023/02/23 02:34:38;;;;;;;2.40;1.33;;;21.70;51.70;;;;;;5022385;28;20369;-65
2023/02/23 02:37:25;;;;;;;2.20;1.30;;;21.80;51.70;;;;;;5021214;28;20583;-65
2023/02/23 02:39:54;;;;;;;2.17;1.20;;;21.70;51.70;;;;;;5019646;28;20030;-65
2023/02/23 02:42:34;;;;;;;2.40;1.50;;;21.70;51.70;;;;;;5020540;28;20033;-65
2023/02/23 02:45:36;;;;;;;3.95;1.42;;;21.70;51.70;;;;;;5021698;28;20072;-66
2023/02/23 02:48:30;;;;;;;2.10;1.25;;;21.70;51.70;;;;;;5002051;28;20571;-65
2023/02/23 02:51:11;;;;;;;2.25;1.30;;;21.70;51.70;;;;;;5037851;28;20025;-65
2023/02/23 02:53:51;;;;;;;2.50;1.60;;;21.70;51.70;;;;;;5020120;28;20030;-65
2023/02/23 02:56:21;;;;;;;2.70;1.50;;;21.70;51.80;;;;;;5020998;28;20037;-65
2023/02/23 02:58:49;;;;;;;2.13;1.30;;;21.70;51.70;;;;;;5021224;28;20033;-65
2023/02/23 04:18:35;;;;;;;1.67;1.10;;;21.40;51.80;;;;;;5022545;28;20121;-64
2023/02/23 04:21:01;;;;;;;1.63;1.13;;;21.40;51.80;;;;;;5018335;28;20022;-65
2023/02/23 04:23:27;;;;;;;1.67;1.20;;;21.40;51.80;;;;;;5022609;28;20120;-65
2023/02/23 04:25:54;;;;;;;1.83;1.30;;;21.40;51.80;;;;;;5019963;28;20075;-64
2023/02/23 04:28:21;;;;;;;1.88;1.30;;;21.40;51.90;;;;;;5022029;28;20033;-65
2023/02/23 04:30:47;;;;;;;1.45;1.10;;;21.40;51.80;;;;;;5017832;28;20105;-66
2023/02/23 04:33:13;;;;;;;1.98;1.30;;;21.40;51.90;;;;;;5023193;28;20066;-64
2023/02/23 04:35:39;;;;;;;2.15;1.40;;;21.40;51.90;;;;;;5019310;28;20034;-64
2023/02/23 04:38:05;;;;;;;1.88;1.15;;;21.40;51.90;;;;;;5019261;28;20496;-66
2023/02/23 04:40:31;;;;;;;1.50;1.10;;;21.40;51.90;;;;;;5022100;28;20110;-64
2023/02/23 04:42:57;;;;;;;1.75;0.95;;;21.40;51.90;;;;;;5017413;28;20423;-65
2023/02/23 04:45:24;;;;;;;2.22;1.45;;;21.40;51.90;;;;;;5032296;28;20048;-63
2023/02/23 04:47:49;;;;;;;2.50;1.27;;;21.40;52.50;;;;;;5022811;28;20393;-65
2023/02/23 04:50:16;;;;;;;1.73;1.17;;;21.40;52.00;;;;;;5022998;28;20052;-63
2023/02/23 04:52:42;;;;;;;2.28;1.20;;;21.40;52.00;;;;;;5019647;28;20026;-64
2023/02/23 04:55:14;;;;;;;2.00;1.20;;;21.40;52.00;;;;;;5022478;28;20044;-64
2023/02/23 04:57:40;;;;;;;1.60;1.25;;;21.40;52.00;;;;;;5018643;28;20026;-65
2023/02/23 05:00:06;;;;;;;1.60;1.20;;;21.40;52.00;;;;;;5019361;28;20033;-65
2023/02/23 05:02:32;;;;;;;1.65;1.10;;;21.30;51.90;;;;;;5019521;28;20113;-66
2023/02/23 05:04:57;;;;;;;1.40;1.10;;;21.40;52.00;;;;;;5019337;28;20117;-64
2023/02/23 05:07:23;;;;;;;2.10;1.27;;;21.40;52.00;;;;;;5018758;28;20037;-64
2023/02/23 05:09:48;;;;;;;1.73;1.10;;;21.30;51.90;;;;;;5017367;28;20052;-63
2023/02/23 05:12:14;;;;;;;1.98;1.27;;;21.30;51.90;;;;;;5017706;28;20491;-63
2023/02/23 05:14:39;;;;;;;1.98;1.25;;;21.30;52.00;;;;;;5021632;28;20029;-64
2023/02/23 05:17:06;;;;;;;1.73;1.20;;;21.30;52.00;;;;;;5020737;28;20041;-65
2023/02/23 05:19:31;;;;;;;2.13;1.30;;;21.30;52.00;;;;;;5018327;28;20049;-65
2023/02/23 05:21:57;;;;;;;1.58;1.10;;;21.30;52.00;;;;;;5017978;28;20076;-65
2023/02/23 05:24:22;;;;;;;1.67;1.20;;;21.30;52.00;;;;;;5018135;28;20034;-66
2023/02/23 05:26:48;;;;;;;2.28;1.20;;;21.30;52.00;;;;;;5018418;28;20104;-65
2023/02/23 05:29:15;;;;;;;1.83;1.00;;;21.30;52.00;;;;;;5038026;28;20053;-65
2023/02/23 05:31:41;;;;;;;1.75;1.20;;;21.30;52.00;;;;;;5020634;28;20014;-65
2023/02/23 05:34:06;;;;;;;1.70;1.30;;;21.30;52.50;;;;;;5019092;28;20029;-65
2023/02/23 05:36:32;;;;;;;1.77;1.13;;;21.30;52.00;;;;;;5017012;28;20088;-65
2023/02/23 05:38:58;;;;;;;2.28;1.20;;;21.30;52.00;;;;;;5019156;28;20032;-64
2023/02/23 05:41:23;;;;;;;1.80;1.17;;;21.30;52.00;;;;;;5018175;28;20104;-64
2023/02/23 05:43:51;;;;;;;1.77;1.10;;;21.30;52.00;;;;;;5023403;28;20025;-64
2023/02/23 05:46:20;;;;;;;2.50;1.30;;;21.30;52.00;;;;;;5020922;28;20050;-64
2023/02/23 05:48:46;;;;;;;1.88;1.33;;;21.30;52.00;;;;;;5020923;28;20038;-65
2023/02/23 05:51:13;;;;;;;1.65;1.08;;;21.30;52.00;;;;;;5024841;28;20034;-65
2023/02/23 05:53:39;;;;;;;1.63;1.20;;;21.30;52.00;;;;;;5021796;28;20049;-64
2023/02/23 05:56:07;;;;;;;1.90;1.10;;;21.30;52.00;;;;;;5023601;28;20468;-67
2023/02/23 05:58:33;;;;;;;1.70;1.20;;;21.30;52.00;;;;;;5022280;28;20026;-65
2023/02/23 06:00:59;;;;;;;2.15;1.30;;;21.20;52.00;;;;;;5023858;28;20037;-64
2023/02/23 06:03:24;;;;;;;2.13;1.30;;;21.30;52.00;;;;;;5023228;28;20030;-65
2023/02/23 06:05:55;;;;;;;2.08;1.30;;;21.30;52.00;;;;;;5022517;28;20061;-67
2023/02/23 06:08:22;;;;;;;1.80;1.20;;;21.30;52.00;;;;;;5020262;28;20033;-65
2023/02/23 06:10:48;;;;;;;1.90;1.30;;;21.30;52.10;;;;;;5024604;28;20021;-65
2023/02/23 06:13:14;;;;;;;1.92;1.20;;;21.30;52.00;;;;;;5020840;28;20152;-65
2023/02/23 06:15:40;;;;;;;2.13;1.25;;;21.20;52.00;;;;;;5023397;28;20025;-65
2023/02/23 06:18:07;;;;;;;2.25;1.27;;;21.20;52.00;;;;;;5021893;28;20408;-65
2023/02/23 06:20:33;;;;;;;2.13;1.17;;;21.20;52.00;;;;;;5021894;28;20126;-64
2023/02/23 06:22:59;;;;;;;2.22;1.30;;;21.30;52.00;;;;;;5023926;28;20057;-65
2023/02/23 06:25:25;;;;;;;1.85;1.25;;;21.20;52.40;;;;;;5021302;28;20034;-65
2023/02/23 06:27:50;;;;;;;2.53;1.40;;;21.20;51.90;;;;;;5021617;28;20052;-65
2023/02/23 06:30:16;;;;;;;2.45;1.40;;;21.20;51.90;;;;;;5022405;28;20033;-65
2023/02/23 06:32:42;;;;;;;2.10;1.35;;;21.20;52.40;;;;;;5021023;28;20022;-65
2023/02/23 06:35:08;;;;;;;1.77;1.40;;;21.20;51.80;;;;;;5020424;28;20062;-65
2023/02/23 06:37:35;;;;;;;1.60;1.10;;;21.20;51.90;;;;;;5021072;28;20520;-66
2023/02/23 06:40:01;;;;;;;2.28;1.40;;;21.20;51.90;;;;;;5021866;28;20025;-66
2023/02/23 06:42:26;;;;;;;2.00;1.50;;;21.20;51.90;;;;;;5019704;28;20026;-67
2023/02/23 06:44:52;;;;;;;2.22;1.40;;;21.20;51.90;;;;;;5021503;28;20099;-66
2023/02/23 06:47:17;;;;;;;2.20;1.50;;;21.20;51.80;;;;;;5023750;28;20034;-65
2023/02/23 06:49:43;;;;;;;2.33;1.50;;;21.20;51.90;;;;;;5019725;28;20075;-65
2023/02/23 06:52:12;;;;;;;2.17;1.60;;;21.20;51.90;;;;;;5022156;28;20100;-65
2023/02/23 06:54:38;;;;;;;2.10;1.30;;;21.20;52.40;;;;;;5018773;28;20018;-65
2023/02/23 06:57:05;;;;;;;1.90;1.27;;;21.20;51.90;;;;;;5017402;28;20461;-65
2023/02/23 06:59:30;;;;;;;2.22;1.40;;;21.20;52.40;;;;;;5021151;28;20028;-67
2023/02/23 07:01:56;;;;;;;2.35;1.40;;;21.20;51.90;;;;;;5022282;28;20120;-64
2023/02/23 07:04:22;;;;;;;2.10;1.38;;;21.20;51.90;;;;;;5022336;28;20033;-67
2023/02/23 07:06:48;;;;;;;2.47;1.60;;;21.20;51.90;;;;;;5019178;28;20045;-65
2023/02/23 07:09:14;;;;;;;1.98;1.27;;;21.20;51.90;;;;;;5020659;28;20034;-65
2023/02/23 07:11:40;;;;;;;2.20;1.50;;;21.20;51.90;;;;;;5020245;28;20056;-65
2023/02/23 07:14:09;;;;;;;2.10;1.40;;;21.20;51.90;;;;;;5018996;28;20100;-67
2023/02/23 07:16:35;;;;;;;2.65;1.50;;;21.20;51.90;;;;;;5020903;28;20458;-66
2023/02/23 07:19:02;;;;;;;2.28;1.55;;;21.20;51.90;;;;;;5022848;28;20018;-65
2023/02/23 07:21:30;;;;;;;2.17;1.30;;;21.10;51.80;;;;;;5028498;28;20033;-66
2023/02/23 07:23:56;;;;;;;2.13;1.48;;;21.10;51.80;;;;;;5021632;28;20059;-65
2023/02/23 07:26:22;;;;;;;1.98;1.33;;;21.20;51.90;;;;;;5020345;28;20456;-66
2023/02/23 07:28:48;;;;;;;2.05;1.33;;;21.20;51.90;;;;;;5021255;28;20183;-65
2023/02/23 07:31:14;;;;;;;2.00;1.40;;;21.20;52.40;;;;;;5021974;28;20131;-65
2023/02/23 07:33:39;;;;;;;2.33;1.40;;;21.20;51.90;;;;;;5020728;28;20444;-65
2023/02/23 07:36:05;;;;;;;2.30;1.50;;;21.10;51.80;;;;;;5020172;28;20022;-66
2023/02/23 07:38:31;;;;;;;2.90;1.70;;;21.10;51.80;;;;;;5021925;28;20481;-65
2023/02/23 07:40:57;;;;;;;1.60;1.10;;;21.20;51.90;;;;;;5023920;28;20026;-66
2023/02/23 07:43:23;;;;;;;1.80;1.20;;;21.10;51.90;;;;;;5021174;28;20118;-66
2023/02/23 07:45:50;;;;;;;2.13;1.40;;;21.10;51.90;;;;;;5016242;28;20030;-65
2023/02/23 07:48:16;;;;;;;2.28;1.50;;;21.10;51.90;;;;;;5017315;28;20041;-65
2023/02/23 07:50:42;;;;;;;2.08;1.30;;;21.10;51.90;;;;;;5022306;28;20026;-66
2023/02/23 07:53:08;;;;;;;2.33;1.60;;;21.10;51.90;;;;;;5020696;28;20029;-66
2023/02/23 07:55:34;;;;;;;1.98;1.38;;;21.10;51.90;;;;;;5018796;28;20096;-65
2023/02/23 07:58:00;;;;;;;2.13;1.50;;;21.10;51.90;;;;;;5023962;28;20476;-65
2023/02/23 08:00:26;;;;;;;2.50;1.52;;;21.10;51.90;;;;;;5022560;28;20099;-65
2023/02/23 08:02:52;;;;;;;2.40;1.40;;;21.10;52.40;;;;;;5017865;28;20030;-65
2023/02/23 08:05:18;;;;;;;1.90;1.40;;;21.10;51.90;;;;;;5020086;28;20029;-66
2023/02/23 08:07:44;;;;;;;1.67;1.25;;;21.10;51.90;;;;;;5021936;28;20156;-66
2023/02/23 08:10:10;;;;;;;2.38;1.50;;;21.10;51.90;;;;;;5020754;28;20037;-67
2023/02/23 08:12:36;;;;;;;2.08;1.42;;;21.10;51.90;;;;;;5020285;28;20065;-65
2023/02/23 08:15:07;;;;;;;2.08;1.38;;;21.10;51.90;;;;;;5019542;28;20507;-65
2023/02/23 08:17:33;;;;;;;1.90;1.35;;;21.10;51.90;;;;;;5019820;28;20057;-66
2023/02/23 08:19:59;;;;;;;2.50;1.48;;;21.10;52.00;;;;;;5019249;28;20041;-65
2023/02/23 08:22:26;;;;;;;1.98;1.30;;;21.10;52.00;;;;;;5019227;28;20045;-65
2023/02/23 08:24:52;;;;;;;1.80;1.30;;;21.10;52.00;;;;;;5016059;28;20090;-64
2023/02/23 08:27:18;;;;;;;2.15;1.35;;;21.10;52.00;;;;;;5018794;28;20025;-67
2023/02/23 08:29:43;;;;;;;2.10;1.35;;;21.10;52.00;;;;;;5018165;28;20470;-65
2023/02/23 08:32:09;;;;;;;2.00;1.30;;;21.10;52.00;;;;;;5021052;28;20018;-65
2023/02/23 08:34:43;;;;;;;2.10;1.38;;;21.10;52.00;;;;;;5020887;28;20018;-65
2023/02/23 08:37:09;;;;;;;2.00;1.40;;;21.10;52.00;;;;;;5020497;28;20477;-65
2023/02/23 08:39:35;;;;;;;2.17;1.27;;;21.10;52.00;;;;;;5018424;28;20390;-65
2023/02/23 08:42:01;;;;;;;2.40;1.40;;;21.10;52.00;;;;;;5021024;28;20029;-66
2023/02/23 08:44:26;;;;;;;2.30;1.52;;;21.10;52.00;;;;;;5020359;28;20077;-66
2023/02/23 08:46:54;;;;;;;2.30;1.50;;;21.10;52.00;;;;;;5021570;28;20030;-68
2023/02/23 08:49:20;;;;;;;2.17;1.48;;;21.10;52.10;;;;;;5019366;28;20018;-66
2023/02/23 08:51:45;;;;;;;2.50;1.40;;;21.10;52.10;;;;;;5017149;28;20037;-65
2023/02/23 08:54:13;;;;;;;2.20;1.60;;;21.10;52.10;;;;;;5034114;28;20059;-65
2023/02/23 08:56:39;;;;;;;2.00;1.38;;;21.10;52.30;;;;;;5015481;28;20025;-66
2023/02/23 08:59:05;;;;;;;2.47;1.60;;;21.10;52.10;;;;;;5019680;28;20032;-65
2023/02/23 09:01:31;;;;;;;2.38;1.50;;;21.10;52.20;;;;;;5019828;28;20464;-67
2023/02/23 09:03:57;;;;;;;2.10;1.48;;;21.00;52.10;;;;;;5018410;28;20033;-66
2023/02/23 09:06:25;;;;;;;1.95;1.40;;;21.00;52.10;;;;;;5019909;28;20030;-66
2023/02/23 09:08:53;;;;;;;2.45;1.52;;;21.00;52.10;;;;;;5018052;28;20404;-67
2023/02/23 09:11:18;;;;;;;2.03;1.58;;;21.00;52.10;;;;;;5018676;28;20026;-66
2023/02/23 09:13:44;;;;;;;2.13;1.60;;;21.00;52.10;;;;;;5019220;28;20029;-66
2023/02/23 09:16:10;;;;;;;2.45;1.70;;;21.00;52.10;;;;;;5019305;28;20037;-65
2023/02/23 09:18:36;;;;;;;2.47;1.70;;;21.00;52.20;;;;;;5021570;28;20030;-66
2023/02/23 09:21:05;;;;;;;2.83;1.75;;;21.00;52.20;;;;;;5025873;28;20149;-66
2023/02/23 09:23:31;;;;;;;2.42;1.70;;;21.00;52.20;;;;;;5020633;28;20026;-66
2023/02/23 09:26:00;;;;;;;2.88;1.75;;;21.00;52.20;;;;;;5020310;28;20037;-66
2023/02/23 09:28:29;;;;;;;2.78;1.80;;;21.00;52.20;;;;;;5022250;28;20038;-66
2023/02/23 09:30:55;;;;;;;3.17;1.93;;;21.00;52.20;;;;;;5024978;28;20021;-66
2023/02/23 09:33:21;;;;;;;3.22;2.13;;;21.00;52.30;;;;;;5021933;28;20026;-67
2023/02/23 09:35:46;;;;;;;3.90;2.67;;;21.00;52.20;;;;;;5018271;28;20056;-66
2023/02/23 09:38:12;;;;;;;4.32;3.08;;;21.00;52.30;;;;;;5024240;28;20052;-67
2023/02/23 09:40:46;;;;;;;5.05;3.08;;;21.00;52.30;;;;;;5024475;28;20029;-66
2023/02/23 09:43:21;;;;;;;4.13;3.20;;;21.00;52.30;;;;;;5022437;28;20030;-67
2023/02/23 09:45:52;;;;;;;4.82;3.47;;;21.00;52.30;;;;;;5036843;28;20033;-67
2023/02/23 09:48:24;;;;;;;4.63;3.45;;;21.00;52.30;;;;;;5024530;28;20069;-66
2023/02/23 09:50:52;;;;;;;4.30;3.40;;;21.00;52.40;;;;;;5020764;28;20029;-67
2023/02/23 09:53:36;;;;;;;4.97;3.60;;;21.00;52.40;;;;;;5025696;28;20024;-65
2023/02/23 09:56:11;;;;;;;4.18;3.28;;;21.00;52.40;;;;;;5024515;28;20041;-67
2023/02/23 09:58:37;;;;;;;5.97;3.70;;;21.00;52.40;;;;;;5021339;28;20026;-66
2023/02/23 10:01:21;;;;;;;5.40;3.58;;;21.00;52.40;;;;;;5018835;28;20061;-67
2023/02/23 10:04:10;;;;;;;5.88;4.47;;;21.00;52.40;;;;;;5022874;28;20469;-66
2023/02/23 10:06:38;;;;;;;5.00;4.13;;;21.00;52.40;;;;;;5024900;28;20017;-67
2023/02/23 10:09:32;;;;;;;5.63;4.05;;;21.00;52.50;;;;;;5021515;28;20452;-68
2023/02/23 10:12:12;;;;;;;5.25;4.10;;;21.00;52.40;;;;;;5018734;28;20030;-68
2023/02/23 10:14:51;;;;;;;4.50;3.35;;;21.00;52.50;;;;;;5023443;28;20087;-67
2023/02/23 10:17:47;;;;;;;5.43;4.18;;;21.00;52.50;;;;;;5022818;28;20021;-66
2023/02/23 10:20:22;;;;;;;4.78;3.90;;;21.00;52.50;;;;;;5022851;28;20056;-68
2023/02/23 10:22:48;;;;;;;5.03;4.00;;;21.00;52.50;;;;;;5021011;28;20059;-66
2023/02/23 10:25:22;;;;;;;5.10;4.22;;;21.00;52.50;;;;;;5020054;28;20029;-67
2023/02/23 10:27:49;;;;;;;6.32;4.63;;;21.00;52.90;;;;;;5022515;28;20017;-66
2023/02/23 10:30:27;;;;;;;5.47;4.22;;;21.00;53.20;;;;;;5021460;28;20026;-68
2023/02/23 10:32:54;;;;;;;5.85;4.43;;;21.00;53.20;;;;;;5029951;28;20393;-67
2023/02/23 10:35:21;;;;;;;5.78;4.40;;;21.00;53.20;;;;;;5021861;28;20452;-67
2023/02/23 10:37:48;;;;;;;5.75;4.28;;;21.10;53.20;;;;;;5023449;28;20022;-67
2023/02/23 10:40:23;;;;;;;5.80;4.40;;;21.10;53.10;;;;;;5020722;28;20037;-67
2023/02/23 10:42:50;;;;;;;6.65;4.75;;;21.10;53.00;;;;;;5037065;28;20111;-67
2023/02/23 10:45:21;;;;;;;7.90;5.78;;;21.20;52.90;;;;;;5019501;28;20057;-67
2023/02/23 10:47:51;;;;;;;7.95;6.07;;;21.20;52.70;;;;;;5022577;28;20120;-67
2023/02/23 10:50:18;;;;;;;8.93;5.82;;;21.30;52.60;;;;;;5021253;28;20025;-68
2023/02/23 10:52:46;;;;;;;8.40;5.80;;;21.30;52.50;;;;;;5019384;28;20438;-66
2023/02/23 10:55:25;;;;;;;7.82;5.85;;;21.30;52.40;;;;;;5021535;28;20109;-68
2023/02/23 10:58:15;;;;;;;8.25;6.05;;;21.40;52.50;;;;;;5021518;28;20022;-67
2023/02/23 11:00:50;;;;;;;7.78;5.72;;;21.40;52.30;;;;;;5017569;28;20338;-67
2023/02/23 11:03:28;;;;;;;7.40;5.30;;;21.40;52.20;;;;;;5021299;28;20052;-67
2023/02/23 11:05:53;;;;;;;7.40;5.50;;;21.50;52.20;;;;;;5021002;28;20380;-67
2023/02/23 11:08:37;;;;;;;7.10;5.28;;;21.50;52.20;;;;;;5036496;28;20025;-69
2023/02/23 11:11:14;;;;;;;7.60;5.47;;;21.50;52.00;;;;;;5019954;28;20524;-67
2023/02/23 11:13:45;;;;;;;6.63;4.68;;;21.60;52.00;;;;;;5022750;28;20091;-68
2023/02/23 11:16:15;;;;;;;7.03;5.00;;;21.60;51.90;;;;;;5020781;28;20434;-67
2023/02/23 11:19:02;;;;;;;7.45;4.95;;;21.60;51.90;;;;;;5022303;28;20378;-67
2023/02/23 11:21:28;;;;;;;6.53;4.78;;;21.70;51.90;;;;;;5020359;28;20640;-68
2023/02/23 11:23:58;;;;;;;7.85;5.22;;;21.70;51.90;;;;;;5019953;28;20395;-67
2023/02/23 11:26:29;;;;;;;7.07;5.20;;;21.70;51.90;;;;;;5021729;28;20021;-67
2023/02/23 11:28:59;;;;;;;8.38;4.80;;;21.70;51.90;;;;;;5020336;28;20045;-67
2023/02/23 11:31:33;;;;;;;;;;;21.70;51.90;;;;;;5022409;28;20069;-66
2023/02/23 11:34:03;;;;;;;7.05;4.40;;;21.80;51.90;;;;;;5020477;28;19916;-67
2023/02/23 11:36:32;;;;;;;5.60;4.50;;;21.80;51.70;;;;;;5018703;28;20062;-69
2023/02/23 11:39:05;;;;;;;6.30;4.23;;;21.80;51.80;;;;;;5019013;28;20437;-67
2023/02/23 11:41:34;;;;;;;5.80;4.63;;;21.80;51.80;;;;;;5016187;28;20679;-67
2023/02/23 11:44:02;;;;;;;5.50;4.30;;;21.80;51.80;;;;;;5020403;28;20038;-68
2023/02/23 11:46:31;;;;;;;6.72;4.50;;;21.90;51.90;;;;;;5018256;28;20061;-67
2023/02/23 11:49:05;;;;;;;6.88;4.32;;;21.90;51.90;;;;;;5019062;28;20516;-67
2023/02/23 11:51:38;;;;;;;6.15;4.30;;;21.90;51.90;;;;;;5019154;28;20503;-67
2023/02/23 11:54:09;;;;;;;7.45;4.65;;;22.00;52.10;;;;;;5019981;28;20160;-67
2023/02/23 11:56:34;;;;;;;5.93;4.32;;;22.00;52.00;;;;;;5021478;28;20100;-68
2023/02/23 11:59:06;;;;;;;6.03;4.15;;;22.00;51.90;;;;;;5018400;28;20105;-66
2023/02/23 12:01:40;;;;;;;5.50;4.00;;;22.00;51.90;;;;;;5022220;28;20025;-67
2023/02/23 12:04:06;;;;;;;5.00;3.95;;;22.00;51.90;;;;;;5021073;28;20087;-67
2023/02/23 12:06:39;;;;;;;6.07;4.10;;;22.00;51.80;;;;;;5019135;28;20018;-67
2023/02/23 12:09:18;;;;;;;6.60;4.43;;;22.00;51.80;;;;;;5021725;28;20042;-66
2023/02/23 12:11:59;;;;;;;6.20;4.07;;;22.00;51.80;;;;;;5017853;28;20034;-66
2023/02/23 12:14:28;;;;;;;5.90;4.25;;;22.10;51.80;;;;;;5017296;28;20452;-67
2023/02/23 12:17:07;;;;;;;7.18;4.32;;;22.10;51.90;;;;;;5016800;28;20100;-67
2023/02/23 12:19:35;;;;;;;6.18;3.75;;;22.10;51.90;;;;;;5019542;28;20572;-67
2023/02/23 12:22:17;;;;;;;4.80;3.35;;;22.10;51.90;;;;;;5019343;28;20042;-66
2023/02/23 12:25:01;;;;;;;5.80;3.60;;;22.10;51.80;;;;;;5022417;28;20026;-67
2023/02/23 12:27:41;;;;;;;6.20;3.88;;;22.10;51.80;;;;;;5015533;28;20029;-67
2023/02/23 12:30:26;;;;;;;5.22;3.70;;;22.10;51.70;;;;;;5022800;28;20026;-67
2023/02/23 12:33:10;;;;;;;5.75;3.75;;;22.10;51.70;;;;;;5034078;28;20033;-66
2023/02/23 12:35:57;;;;;;;5.90;4.00;;;22.10;51.70;;;;;;5017609;28;20693;-66
2023/02/23 12:38:47;;;;;;;5.57;3.90;;;22.10;51.60;;;;;;5018613;28;20025;-66
2023/02/23 12:41:19;;;;;;;4.50;3.47;;;22.20;51.60;;;;;;5018772;28;20116;-67
2023/02/23 12:43:59;;;;;;;5.10;3.67;;;22.20;51.50;;;;;;5017859;28;20053;-67
2023/02/23 12:46:34;;;;;;;5.43;3.88;;;22.20;51.50;;;;;;5019835;28;20080;-66
2023/02/23 12:49:05;;;;;;;4.97;3.55;;;22.20;51.40;;;;;;5017155;28;20124;-67
2023/02/23 12:52:15;;;;;;;4.78;3.38;;;22.20;51.60;;;;;;5018081;28;20120;-66
2023/02/23 12:54:45;;;;;;;5.38;3.85;;;22.30;51.50;;;;;;4994926;28;20036;-67
2023/02/23 12:57:18;;;;;;;5.57;3.55;;;22.30;51.50;;;;;;5021010;28;20123;-67
2023/02/23 12:59:43;;;;;;;4.40;3.33;;;22.30;51.40;;;;;;5020242;28;20033;-66
2023/02/23 13:02:26;;;;;;;4.22;3.20;;;22.30;51.40;;;;;;5020113;28;20025;-68
2023/02/23 13:05:25;;;;;;;5.78;3.78;;;22.30;51.80;;;;;;5018053;28;20036;-66
2023/02/23 13:08:10;;;;;;;4.85;3.67;;;22.30;51.30;;;;;;5034747;28;20041;-67
2023/02/23 13:10:39;;;;;;;4.68;3.03;;;22.40;51.40;;;;;;5022278;28;20033;-67
2023/02/23 13:13:46;;;;;;;5.03;3.17;;;22.40;51.30;;;;;;5020963;28;20067;-66
2023/02/23 13:16:38;;;;;;;5.22;3.50;;;22.40;51.30;;;;;;5019801;28;20340;-68
2023/02/23 13:19:18;;;;;;;5.45;3.58;;;22.40;51.30;;;;;;5019549;28;20026;-66
2023/02/23 13:21:52;;;;;;;3.60;2.83;;;22.40;51.40;;;;;;5020104;28;20029;-68
2023/02/23 13:24:25;;;;;;;4.18;3.17;;;22.40;51.40;;;;;;5018923;28;20025;-67
2023/02/23 13:27:00;;;;;;;5.95;3.10;;;22.40;51.40;;;;;;5020092;28;20041;-66
2023/02/23 13:29:48;;;;;;;5.88;3.30;;;22.40;51.40;;;;;;5018077;28;20026;-66
2023/02/23 13:32:38;;;;;;;5.23;3.30;;;22.40;51.50;;;;;;5018884;28;20366;-66
2023/02/23 13:35:11;;;;;;;5.00;2.90;;;22.40;51.40;;;;;;5017364;28;20469;-67
2023/02/23 13:38:19;;;;;;;4.85;3.25;;;22.40;51.50;;;;;;5019137;28;20425;-66
2023/02/23 13:40:52;;;;;;;4.45;3.13;;;22.50;51.60;;;;;;5007462;28;20048;-67
2023/02/23 13:43:31;;;;;;;6.82;3.00;;;22.50;51.70;;;;;;5020280;28;20381;-66
2023/02/23 13:46:09;;;;;;;5.95;3.30;;;22.40;51.60;;;;;;5019513;28;20045;-66
2023/02/23 13:48:50;;;;;;;3.90;2.90;;;22.40;51.50;;;;;;5019105;28;20515;-66
2023/02/23 13:51:21;;;;;;;4.55;2.83;;;22.50;51.50;;;;;;5018459;28;20026;-66
2023/02/23 13:54:13;;;;;;;3.95;2.80;;;22.50;51.50;;;;;;5016958;28;20049;-67
2023/02/23 13:56:47;;;;;;;5.07;3.05;;;22.50;51.40;;;;;;5015352;28;20029;-66
2023/02/23 13:59:21;;;;;;;4.00;2.80;;;22.50;51.30;;;;;;5021059;28;20361;-66
2023/02/23 14:01:51;;;;;;;6.00;2.95;;;22.50;51.30;;;;;;5017005;28;20030;-66
2023/02/23 14:04:26;;;;;;;4.38;2.83;;;22.50;51.30;;;;;;5022231;28;20474;-66
2023/02/23 14:07:09;;;;;;;4.32;3.17;;;22.50;51.30;;;;;;5022307;28;20034;-66
2023/02/23 14:09:55;;;;;;;4.60;3.00;;;22.50;51.20;;;;;;5023300;28;20025;-67
2023/02/23 14:13:11;;;;;;;4.70;2.90;;;22.50;51.20;;;;;;5022435;28;20155;-66
2023/02/23 14:15:37;;;;;;;4.10;2.55;;;22.50;51.30;;;;;;5023390;28;20111;-67
2023/02/23 14:18:27;;;;;;;4.65;2.83;;;22.50;51.20;;;;;;5022952;28;20477;-67
2023/02/23 14:20:54;;;;;;;4.65;2.70;;;22.50;51.20;;;;;;5024045;28;20018;-66
2023/02/23 14:23:20;;;;;;;5.00;2.90;;;22.50;51.20;;;;;;5019174;28;20047;-66
2023/02/23 14:26:08;;;;;;;4.20;2.65;;;22.50;51.10;;;;;;5020934;28;20029;-66
2023/02/23 14:29:12;;;;;;;3.88;2.75;;;22.50;51.20;;;;;;5022606;28;20052;-66